Strona główna
METAR-TAF:

METAR-TAF

Lotnisko :

Port lotniczy Darwin

Darwin, Australia

Szerokość geograficzna: 12-24S, Długość geograficzna: 130-52E, wysokość: 31 m

Aktualna obserwacja pogody

Raport powstał 40 minut temu, godzina 07:30 UTC
Wiatr 5 kt od wschodnio-południowy wschód, zmienny między wschód i południowo-południowy wschód
Temperatura 30°C
Wilgotność 33%
Ciśnienie 1012 hPa
Widzialność 10 km lub więcej
Brak chmur poniżej 1500 m i brak chmur cumulonimbus

METAR: YPDN 040730Z 11005KT 080V150 CAVOK 30/12 Q1012 NOSIG

czas: 17:40 (08:10 UTC)

Prognoza

Raport powstał 3 godziny i 0 minut temu, godzina 05:10 UTC
Prognoza ważna od 04 godzina 06 UTC do 05 godzina 12 UTC
Wiatr 10 kt od wschodnio-południowy wschód
Widzialność 10 km lub więcej
Brak chmur poniżej 1500 m i brak chmur cumulonimbus

TAF: YPDN 040510Z 0406/0512 11010KT CAVOK

Obserwacja i prognoza pogody dla ponad 4000 lotnisk (raport METAR i TAF).

Dostępne stacje oznaczono żółtymi i czerwonymi punktami na mapie.

Najedź kursorem aby zobaczyć nazwę stacji.

Kliknij aby zobaczyć obserwacje i prognozy pogody.

Aby zmienić mapę: kliknij na zielony przycisk z czarnym krzyżykiem, aby powiększyć; na zielony przycisk z myślnikiem, aby pomniejszyć; na zielone strzałki, aby przejść do map sąsiednich.


METAR-TAF: